Time;durP1;ratioP1;P1;durP2;ratioP2;P2;SDS_P1;SDS_P2;PMS_P1;PMS_P2;Temp;Humidity;BMP_temperature;BMP_pressure;BME280_temperature;BME280_humidity;BME280_pressure;Samples;Min_cycle;Max_cycle;Signal;HPM_P1;HPM_P2
2021/05/08 00:01:16;;;;;;;3.78;2.22;;;;;;;;;;5070471;28;20415;-74
2021/05/08 00:04:39;;;;;;;7.85;2.40;;;;;;;;;;5110422;27;20438;-74
2021/05/08 00:07:26;;;;;;;7.47;3.25;;;;;;;;;;5110528;27;20426;-73
2021/05/08 00:09:52;;;;;;;6.90;2.95;;;;;;;;;;5110380;28;20036;-73
2021/05/08 00:12:18;;;;;;;13.90;3.55;;;;;;;;;;5110116;28;20500;-73
2021/05/08 00:14:44;;;;;;;4.95;2.83;;;;;;;;;;5109083;28;20028;-73
2021/05/08 00:17:10;;;;;;;8.13;2.33;;;;;;;;;;5110427;28;20023;-73
2021/05/08 00:22:52;;;;;;;9.13;3.08;;;;;;;;;;5110687;27;20385;-74
2021/05/08 00:25:18;;;;;;;5.20;2.70;;;;;;;;;;5110465;28;20032;-74
2021/05/08 00:28:16;;;;;;;4.97;2.40;;;;;;;;;;5110492;27;20167;-74
2021/05/08 00:30:42;;;;;;;7.10;2.40;;;;;;;;;;5110018;28;20131;-75
2021/05/08 00:33:08;;;;;;;6.72;2.60;;;;;;;;;;5110435;28;20030;-74
2021/05/08 00:42:00;;;;;;;5.35;2.58;;;;;;;;;;5110736;27;20983;-75
2021/05/08 00:44:26;;;;;;;7.85;2.88;;;;;;;;;;5110868;28;20031;-75
2021/05/08 00:46:52;;;;;;;6.28;3.40;;;;;;;;;;5111070;28;20459;-74
2021/05/08 01:02:07;;;;;;;6.32;3.10;;;;;;;;;;5110397;27;20385;-74
2021/05/08 01:04:33;;;;;;;4.65;2.38;;;;;;;;;;5110465;28;20483;-74
2021/05/08 01:09:08;;;;;;;8.25;2.97;;;;;;;;;;5110242;27;20436;-73
2021/05/08 01:11:36;;;;;;;10.10;3.58;;;;;;;;;;5110795;28;20052;-73
2021/05/08 01:16:10;;;;;;;9.63;3.53;;;;;;;;;;5110217;27;20392;-73
2021/05/08 01:18:37;;;;;;;6.80;3.00;;;;;;;;;;5110635;28;20032;-73
2021/05/08 01:21:04;;;;;;;8.23;3.90;;;;;;;;;;5109421;28;20054;-73
2021/05/08 01:23:30;;;;;;;9.45;3.78;;;;;;;;;;5110054;28;20459;-72
2021/05/08 01:28:10;;;;;;;7.82;3.22;;;;;;;;;;5110380;27;20459;-73
2021/05/08 01:30:46;;;;;;;4.90;2.58;;;;;;;;;;5110663;27;20381;-73
2021/05/08 01:33:12;;;;;;;7.78;2.70;;;;;;;;;;5110522;28;20055;-73
2021/05/08 01:36:10;;;;;;;5.57;2.65;;;;;;;;;;5110113;27;20112;-73
2021/05/08 01:38:37;;;;;;;5.35;2.58;;;;;;;;;;5110456;28;20496;-73
2021/05/08 01:42:43;;;;;;;4.47;2.40;;;;;;;;;;5111307;27;20430;-73
2021/05/08 01:45:10;;;;;;;6.55;3.05;;;;;;;;;;5108956;28;20118;-74
2021/05/08 01:50:20;;;;;;;10.43;3.08;;;;;;;;;;5110002;27;20434;-73
2021/05/08 01:52:47;;;;;;;9.23;2.58;;;;;;;;;;5110453;28;20464;-73
2021/05/08 01:57:53;;;;;;;7.32;3.13;;;;;;;;;;5109986;27;20396;-73
2021/05/08 02:00:27;;;;;;;13.18;2.95;;;;;;;;;;5109140;28;20034;-73
2021/05/08 02:02:54;;;;;;;7.10;3.90;;;;;;;;;;5110645;28;20024;-73
2021/05/08 02:05:21;;;;;;;12.25;3.90;;;;;;;;;;5110079;28;20412;-73
2021/05/08 02:07:48;;;;;;;11.15;4.15;;;;;;;;;;5110715;28;20472;-73
2021/05/08 02:10:15;;;;;;;10.27;5.30;;;;;;;;;;5110372;28;20046;-73
2021/05/08 02:12:41;;;;;;;12.20;5.32;;;;;;;;;;5109862;28;20063;-73
2021/05/08 02:15:15;;;;;;;13.55;4.72;;;;;;;;;;5110188;28;20039;-73
2021/05/08 02:17:42;;;;;;;12.90;6.85;;;;;;;;;;5110211;28;20039;-73
2021/05/08 02:20:14;;;;;;;10.40;6.30;;;;;;;;;;5109975;28;20472;-73
2021/05/08 02:23:17;;;;;;;12.43;6.13;;;;;;;;;;5110771;27;20782;-73
2021/05/08 02:26:29;;;;;;;13.23;6.30;;;;;;;;;;5110191;27;20388;-73
2021/05/08 02:28:55;;;;;;;13.25;6.43;;;;;;;;;;5110552;28;20032;-73
2021/05/08 02:31:21;;;;;;;11.45;6.35;;;;;;;;;;5110492;28;20024;-73
2021/05/08 02:33:47;;;;;;;14.75;6.55;;;;;;;;;;5108771;28;20016;-74
2021/05/08 02:37:21;;;;;;;12.68;5.60;;;;;;;;;;5110467;27;20384;-74
2021/05/08 02:41:29;;;;;;;13.30;5.90;;;;;;;;;;5069686;28;20452;-73
2021/05/08 02:44:10;;;;;;;16.38;5.78;;;;;;;;;;5110646;27;20377;-74
2021/05/08 02:46:36;;;;;;;9.93;5.35;;;;;;;;;;5110202;28;20028;-73
2021/05/08 02:52:57;;;;;;;21.75;6.00;;;;;;;;;;5110373;27;20385;-73
2021/05/08 02:55:24;;;;;;;10.73;4.38;;;;;;;;;;5110031;28;20041;-73
2021/05/08 02:57:50;;;;;;;10.07;4.95;;;;;;;;;;5110492;28;20103;-74
2021/05/08 03:00:17;;;;;;;7.75;4.15;;;;;;;;;;5109074;28;20024;-74
2021/05/08 03:04:37;;;;;;;8.07;3.90;;;;;;;;;;5110694;27;20434;-74
2021/05/08 03:07:04;;;;;;;14.95;3.53;;;;;;;;;;5110483;28;20028;-73
2021/05/08 03:09:30;;;;;;;6.18;3.22;;;;;;;;;;5108758;28;20023;-74
2021/05/08 03:11:57;;;;;;;11.80;3.78;;;;;;;;;;5110406;28;20019;-74
2021/05/08 03:14:23;;;;;;;5.05;2.92;;;;;;;;;;5110376;28;20089;-73
2021/05/08 03:16:50;;;;;;;5.72;2.75;;;;;;;;;;5109908;28;20030;-73
2021/05/08 03:19:16;;;;;;;8.07;2.53;;;;;;;;;;5110282;28;20053;-73
2021/05/08 03:21:42;;;;;;;7.15;2.80;;;;;;;;;;5109871;28;20020;-73
2021/05/08 03:24:08;;;;;;;7.68;2.70;;;;;;;;;;5109056;28;20199;-74
2021/05/08 03:26:35;;;;;;;4.07;1.90;;;;;;;;;;5110082;28;20095;-75
2021/05/08 03:29:01;;;;;;;8.23;2.70;;;;;;;;;;5109739;28;20090;-74
2021/05/08 03:32:57;;;;;;;4.35;1.75;;;;;;;;;;5172517;27;20514;-74
2021/05/08 03:37:34;;;;;;;4.10;2.17;;;;;;;;;;5089682;27;20943;-74
2021/05/08 03:40:00;;;;;;;3.17;1.52;;;;;;;;;;5088717;28;20085;-74
2021/05/08 03:42:26;;;;;;;2.33;1.40;;;;;;;;;;5090242;28;20559;-74
2021/05/08 03:44:53;;;;;;;2.28;1.50;;;;;;;;;;5089860;28;20028;-74
2021/05/08 03:47:19;;;;;;;6.63;1.55;;;;;;;;;;5090049;28;20476;-73
2021/05/08 03:50:12;;;;;;;3.35;1.30;;;;;;;;;;5110095;27;20739;-73
2021/05/08 03:53:59;;;;;;;2.58;1.48;;;;;;;;;;5110586;27;20377;-74
2021/05/08 04:04:31;;;;;;;2.80;1.42;;;;;;;;;;5110313;27;20385;-73
2021/05/08 04:06:57;;;;;;;3.95;2.10;;;;;;;;;;5110522;28;20028;-73
2021/05/08 04:10:29;;;;;;;5.43;1.30;;;;;;;;;;5110368;27;20117;-73
2021/05/08 04:12:55;;;;;;;4.68;1.60;;;;;;;;;;5110125;28;20561;-76
2021/05/08 04:15:21;;;;;;;6.00;1.83;;;;;;;;;;5108953;28;20115;-75
2021/05/08 04:21:50;;;;;;;2.53;1.48;;;;;;;;;;5110524;27;20388;-73
2021/05/08 04:24:16;;;;;;;3.42;1.90;;;;;;;;;;5109400;28;20039;-73
2021/05/08 04:26:43;;;;;;;7.45;2.10;;;;;;;;;;5110164;28;20601;-73
2021/05/08 04:29:09;;;;;;;6.55;1.80;;;;;;;;;;5110346;28;20019;-74
2021/05/08 04:31:35;;;;;;;6.43;2.03;;;;;;;;;;5110263;28;20495;-73
2021/05/08 04:34:02;;;;;;;8.60;2.90;;;;;;;;;;5108587;28;20035;-73
2021/05/08 04:36:28;;;;;;;5.95;2.80;;;;;;;;;;5110238;28;20023;-73
2021/05/08 04:38:54;;;;;;;10.68;2.67;;;;;;;;;;5110170;28;20379;-73
2021/05/08 04:41:20;;;;;;;12.30;3.05;;;;;;;;;;5110190;28;20373;-74
2021/05/08 04:45:41;;;;;;;11.63;3.20;;;;;;;;;;5110846;27;20635;-74
2021/05/08 04:48:07;;;;;;;5.35;3.08;;;;;;;;;;5110166;28;20036;-73
2021/05/08 04:52:22;;;;;;;9.93;3.45;;;;;;;;;;5110525;27;20438;-72
2021/05/08 04:55:25;;;;;;;6.50;3.00;;;;;;;;;;5111030;27;20419;-73
2021/05/08 05:01:22;;;;;;;7.53;3.58;;;;;;;;;;5069442;27;20445;-73
2021/05/08 05:03:48;;;;;;;8.85;3.88;;;;;;;;;;5070065;28;20496;-73
2021/05/08 05:06:14;;;;;;;10.95;4.10;;;;;;;;;;5070069;28;20096;-73
2021/05/08 05:10:38;;;;;;;7.13;4.60;;;;;;;;;;5110560;27;20726;-73
2021/05/08 05:13:04;;;;;;;8.15;3.60;;;;;;;;;;5110453;28;20445;-72
2021/05/08 05:15:40;;;;;;;5.43;3.33;;;;;;;;;;5110102;27;20884;-72
2021/05/08 05:18:06;;;;;;;5.30;3.40;;;;;;;;;;5110452;28;20032;-72
2021/05/08 05:20:32;;;;;;;13.13;3.63;;;;;;;;;;5109110;28;20547;-72
2021/05/08 05:22:58;;;;;;;5.85;3.35;;;;;;;;;;5109949;28;20031;-73
2021/05/08 05:25:24;;;;;;;6.85;3.38;;;;;;;;;;5110611;28;20020;-73
2021/05/08 05:28:34;;;;;;;5.57;3.20;;;;;;;;;;5069641;28;20391;-74
2021/05/08 05:31:01;;;;;;;6.50;3.47;;;;;;;;;;5069909;28;20029;-73
2021/05/08 05:33:27;;;;;;;5.45;3.22;;;;;;;;;;5068534;28;20029;-73
2021/05/08 05:35:55;;;;;;;7.95;2.78;;;;;;;;;;5069336;28;20019;-73
2021/05/08 05:40:32;;;;;;;6.85;3.47;;;;;;;;;;5110400;27;20389;-73
2021/05/08 05:42:58;;;;;;;5.95;2.28;;;;;;;;;;5110103;28;20023;-72
2021/05/08 05:45:25;;;;;;;6.15;2.47;;;;;;;;;;5109242;28;20488;-72
2021/05/08 05:51:10;;;;;;;8.55;2.60;;;;;;;;;;5069468;28;20883;-73
2021/05/08 05:53:37;;;;;;;3.65;2.17;;;;;;;;;;5069900;28;20079;-74
2021/05/08 05:56:03;;;;;;;5.50;2.17;;;;;;;;;;5069821;28;20017;-73
2021/05/08 05:58:29;;;;;;;2.75;1.70;;;;;;;;;;5069487;28;20029;-74
2021/05/08 06:00:55;;;;;;;3.47;1.98;;;;;;;;;;5068492;28;20020;-73
2021/05/08 06:03:22;;;;;;;2.45;1.55;;;;;;;;;;5068154;28;20504;-73
2021/05/08 06:05:48;;;;;;;3.78;1.50;;;;;;;;;;5070057;28;20036;-73
2021/05/08 06:08:15;;;;;;;3.92;1.77;;;;;;;;;;5068424;28;20532;-73
2021/05/08 06:11:17;;;;;;;11.40;1.45;;;;;;;;;;5110168;27;20113;-73
2021/05/08 06:13:55;;;;;;;1.77;1.35;;;;;;;;;;5110473;27;20581;-74
2021/05/08 06:20:05;;;;;;;1.83;1.10;;;;;;;;;;5110495;27;20380;-74
2021/05/08 06:22:32;;;;;;;2.70;1.20;;;;;;;;;;5109194;28;20441;-74
2021/05/08 06:24:58;;;;;;;1.55;0.75;;;;;;;;;;5110100;28;20047;-74
2021/05/08 06:27:24;;;;;;;4.88;1.00;;;;;;;;;;5109372;28;20016;-73
2021/05/08 06:32:39;;;;;;;2.30;1.30;;;;;;;;;;5110126;27;20393;-74
2021/05/08 06:35:06;;;;;;;2.92;1.15;;;;;;;;;;5110430;28;20122;-73
2021/05/08 06:37:33;;;;;;;4.63;1.45;;;;;;;;;;5110514;28;20095;-73
2021/05/08 06:39:59;;;;;;;3.25;1.33;;;;;;;;;;5110239;28;20069;-74
2021/05/08 06:42:25;;;;;;;2.45;1.67;;;;;;;;;;5110392;28;20043;-74
2021/05/08 06:44:52;;;;;;;4.60;2.22;;;;;;;;;;5110515;28;20361;-74
2021/05/08 06:48:24;;;;;;;5.68;1.65;;;;;;;;;;5070085;27;20384;-73
2021/05/08 06:52:38;;;;;;;2.40;1.50;;;;;;;;;;5130594;27;20677;-73
2021/05/08 06:55:05;;;;;;;1.83;0.98;;;;;;;;;;5110463;28;20032;-73
2021/05/08 06:57:32;;;;;;;3.42;1.40;;;;;;;;;;5110501;28;20026;-73
2021/05/08 06:59:59;;;;;;;3.50;1.45;;;;;;;;;;5110077;28;20031;-74
2021/05/08 07:02:47;;;;;;;3.95;1.50;;;;;;;;;;5069864;28;20433;-73
2021/05/08 07:05:13;;;;;;;3.63;2.13;;;;;;;;;;5069921;28;20024;-73
2021/05/08 07:07:39;;;;;;;6.00;1.52;;;;;;;;;;5069453;28;20025;-73
2021/05/08 07:11:54;;;;;;;3.03;1.23;;;;;;;;;;5110375;27;20445;-74
2021/05/08 07:16:06;;;;;;;2.60;1.27;;;;;;;;;;5110467;27;20377;-74
2021/05/08 07:18:32;;;;;;;2.05;1.30;;;;;;;;;;5110487;28;20034;-75
2021/05/08 07:20:58;;;;;;;7.10;1.90;;;;;;;;;;5110085;28;20028;-77
2021/05/08 07:23:24;;;;;;;4.05;1.15;;;;;;;;;;5110474;28;20391;-77
2021/05/08 07:25:50;;;;;;;2.40;1.60;;;;;;;;;;5110571;28;20024;-76
2021/05/08 07:28:19;;;;;;;2.75;1.60;;;;;;;;;;5110042;28;20028;-75
2021/05/08 07:30:47;;;;;;;6.90;2.60;;;;;;;;;;5108968;28;20028;-76
2021/05/08 07:34:26;;;;;;;1.40;1.30;;;;;;;;;;5070041;28;20444;-74
2021/05/08 07:36:52;;;;;;;4.10;2.20;;;;;;;;;;5069616;28;20059;-74
2021/05/08 07:39:18;;;;;;;5.45;2.15;;;;;;;;;;5069906;28;20013;-74
2021/05/08 07:41:44;;;;;;;4.00;1.88;;;;;;;;;;5069649;28;20040;-75
2021/05/08 07:44:11;;;;;;;3.00;2.20;;;;;;;;;;5069842;28;20078;-74
2021/05/08 07:46:37;;;;;;;2.83;1.90;;;;;;;;;;5068723;28;20025;-74
2021/05/08 07:51:00;;;;;;;4.22;2.10;;;;;;;;;;5110047;27;20381;-75
2021/05/08 07:53:26;;;;;;;4.80;2.28;;;;;;;;;;5110412;28;20028;-75
2021/05/08 07:56:58;;;;;;;3.92;2.22;;;;;;;;;;5110165;27;20381;-75
2021/05/08 07:59:24;;;;;;;4.20;2.30;;;;;;;;;;5110571;28;20311;-75
2021/05/08 08:05:53;;;;;;;3.85;2.40;;;;;;;;;;5110676;27;20380;-74
2021/05/08 08:08:20;;;;;;;7.93;2.70;;;;;;;;;;5110568;28;20030;-73
2021/05/08 08:11:31;;;;;;;4.53;2.08;;;;;;;;;;5110146;27;20804;-74
2021/05/08 08:14:09;;;;;;;7.15;2.00;;;;;;;;;;5110469;27;20450;-75
2021/05/08 08:16:36;;;;;;;4.72;2.15;;;;;;;;;;5109325;28;20537;-75
2021/05/08 08:19:30;;;;;;;2.53;1.73;;;;;;;;;;5110224;27;20373;-75
2021/05/08 08:21:57;;;;;;;4.03;1.92;;;;;;;;;;5109286;28;20028;-76
2021/05/08 08:30:12;;;;;;;2.50;1.50;;;;;;;;;;5111794;27;20380;-77
2021/05/08 08:32:39;;;;;;;5.50;1.50;;;;;;;;;;5110126;28;20030;-75
2021/05/08 08:35:06;;;;;;;2.83;1.33;;;;;;;;;;5110402;28;20077;-75
2021/05/08 08:37:32;;;;;;;4.93;1.83;;;;;;;;;;5108981;28;20024;-75
2021/05/08 08:39:58;;;;;;;6.03;1.50;;;;;;;;;;5108944;28;20024;-77
2021/05/08 08:42:25;;;;;;;3.95;1.50;;;;;;;;;;5110553;28;20024;-75
2021/05/08 08:45:43;;;;;;;2.60;1.45;;;;;;;;;;5110232;27;20442;-76
2021/05/08 08:51:53;;;;;;;7.47;1.73;;;;;;;;;;5110653;27;20372;-74
2021/05/08 08:54:19;;;;;;;2.15;1.50;;;;;;;;;;5110341;28;20105;-76
2021/05/08 08:56:46;;;;;;;7.60;1.88;;;;;;;;;;5110846;28;20050;-76
2021/05/08 09:00:51;;;;;;;2.38;1.27;;;;;;;;;;5110522;27;20430;-74
2021/05/08 09:03:36;;;;;;;6.70;1.83;;;;;;;;;;5110804;27;20422;-77
2021/05/08 09:06:03;;;;;;;4.03;1.35;;;;;;;;;;5109350;28;20032;-74
2021/05/08 09:08:31;;;;;;;4.65;1.42;;;;;;;;;;5110101;28;20024;-75
2021/05/08 09:11:15;;;;;;;2.67;1.30;;;;;;;;;;5110539;28;20057;-76
2021/05/08 09:13:42;;;;;;;15.23;1.42;;;;;;;;;;5109256;28;20047;-75
2021/05/08 09:16:08;;;;;;;2.80;1.48;;;;;;;;;;5108994;28;20024;-76
2021/05/08 09:18:36;;;;;;;2.75;1.45;;;;;;;;;;5110497;28;20190;-75
2021/05/08 09:21:22;;;;;;;8.38;1.60;;;;;;;;;;5109084;28;20507;-76
2021/05/08 09:23:48;;;;;;;6.80;1.60;;;;;;;;;;5109987;27;20039;-76
2021/05/08 09:26:14;;;;;;;4.88;1.50;;;;;;;;;;5110388;28;20087;-76
2021/05/08 09:28:52;;;;;;;3.10;1.90;;;;;;;;;;5109589;28;20480;-77
2021/05/08 09:31:19;;;;;;;5.15;2.60;;;;;;;;;;5109982;28;20537;-76
2021/05/08 09:33:59;;;;;;;5.15;1.85;;;;;;;;;;5110427;27;20759;-74
2021/05/08 09:36:26;;;;;;;3.15;1.75;;;;;;;;;;5109940;28;20505;-74
2021/05/08 09:40:24;;;;;;;9.80;1.80;;;;;;;;;;5111203;27;20438;-74
2021/05/08 09:43:17;;;;;;;3.38;1.40;;;;;;;;;;5110438;27;21035;-75
2021/05/08 09:45:45;;;;;;;6.25;1.73;;;;;;;;;;5110494;28;20034;-74
2021/05/08 09:48:27;;;;;;;2.50;1.63;;;;;;;;;;5110251;28;20102;-74
2021/05/08 09:52:13;;;;;;;2.53;1.48;;;;;;;;;;5110460;27;20381;-74
2021/05/08 09:54:39;;;;;;;3.45;1.65;;;;;;;;;;5109465;28;20131;-75
2021/05/08 09:57:19;;;;;;;3.35;1.52;;;;;;;;;;5108886;28;20028;-75
2021/05/08 09:59:47;;;;;;;6.03;1.73;;;;;;;;;;5109397;28;20046;-74
2021/05/08 10:02:14;;;;;;;4.07;1.48;;;;;;;;;;5109536;28;20027;-74
2021/05/08 10:05:20;;;;;;;3.42;1.38;;;;;;;;;;5070793;28;20390;-74
2021/05/08 10:07:47;;;;;;;2.38;1.30;;;;;;;;;;5070074;28;20108;-75
2021/05/08 10:10:13;;;;;;;2.42;1.10;;;;;;;;;;5068258;28;20412;-74
2021/05/08 10:12:39;;;;;;;2.70;1.25;;;;;;;;;;5070105;28;20104;-75
2021/05/08 10:15:05;;;;;;;2.17;1.30;;;;;;;;;;5069941;28;20028;-75
2021/05/08 10:21:32;;;;;;;2.70;1.20;;;;;;;;;;5070097;28;20391;-73
2021/05/08 10:25:11;;;;;;;4.90;1.40;;;;;;;;;;5110263;27;20377;-75
2021/05/08 10:27:39;;;;;;;2.00;1.30;;;;;;;;;;5110708;28;20506;-76
2021/05/08 10:30:10;;;;;;;6.28;1.55;;;;;;;;;;5111797;28;20455;-75
2021/05/08 10:34:32;;;;;;;3.63;1.63;;;;;;;;;;5071531;28;20383;-75
2021/05/08 10:37:05;;;;;;;2.65;1.30;;;;;;;;;;5070179;28;20045;-75
2021/05/08 10:39:50;;;;;;;3.78;1.42;;;;;;;;;;5069686;28;20021;-76
2021/05/08 10:42:29;;;;;;;8.40;1.60;;;;;;;;;;5075816;28;20076;-75
2021/05/08 10:44:56;;;;;;;7.97;1.63;;;;;;;;;;5074543;28;20492;-75
2021/05/08 10:51:21;;;;;;;3.90;1.40;;;;;;;;;;5053281;28;20475;-75
2021/05/08 10:55:00;;;;;;;2.88;1.30;;;;;;;;;;5123463;27;1063836;-76
2021/05/08 10:57:27;;;;;;;4.93;1.10;;;;;;;;;;5129851;28;20031;-75
2021/05/08 11:00:02;;;;;;;5.95;1.65;;;;;;;;;;5130790;27;20030;-76
2021/05/08 11:02:42;;;;;;;5.18;2.58;;;;;;;;;;5131074;27;20024;-75
2021/05/08 11:05:24;;;;;;;2.63;1.20;;;;;;;;;;5131006;27;20072;-74
2021/05/08 11:07:50;;;;;;;4.00;1.38;;;;;;;;;;5129148;28;20027;-74
2021/05/08 11:10:32;;;;;;;2.45;1.15;;;;;;;;;;5130732;28;20514;-73
2021/05/08 11:13:14;;;;;;;1.88;1.13;;;;;;;;;;5130710;27;20088;-76
2021/05/08 11:15:56;;;;;;;3.58;1.30;;;;;;;;;;5129718;28;20068;-75
2021/05/08 11:21:02;;;;;;;2.83;1.25;;;;;;;;;;5130397;28;20023;-74
2021/05/08 11:23:55;;;;;;;7.38;1.60;;;;;;;;;;5130548;28;20502;-74
2021/05/08 11:26:25;;;;;;;1.23;0.80;;;;;;;;;;5125361;28;20039;-74
2021/05/08 11:29:01;;;;;;;1.13;0.93;;;;;;;;;;5130195;27;20476;-75
2021/05/08 11:31:35;;;;;;;1.83;0.93;;;;;;;;;;5129121;28;20027;-75
2021/05/08 11:34:24;;;;;;;1.30;0.88;;;;;;;;;;5130233;27;20485;-75
2021/05/08 11:36:51;;;;;;;2.03;1.00;;;;;;;;;;5119549;28;20371;-75
2021/05/08 11:40:33;;;;;;;3.15;1.08;;;;;;;;;;5110660;27;20442;-76
2021/05/08 11:42:59;;;;;;;2.00;1.15;;;;;;;;;;5110266;28;20102;-76
2021/05/08 11:46:00;;;;;;;1.20;1.02;;;;;;;;;;5110343;27;20644;-76
2021/05/08 11:48:26;;;;;;;10.10;7.30;;;;;;;;;;5110150;28;20529;-74
2021/05/08 11:50:56;;;;;;;2.35;1.23;;;;;;;;;;5109502;28;20027;-75
2021/05/08 11:53:23;;;;;;;7.05;1.52;;;;;;;;;;5110646;28;20024;-75
2021/05/08 11:55:49;;;;;;;4.50;1.58;;;;;;;;;;5109135;28;20066;-74
2021/05/08 11:59:48;;;;;;;4.95;1.63;;;;;;;;;;5110822;27;20385;-74
2021/05/08 12:02:19;;;;;;;12.63;1.75;;;;;;;;;;5110214;28;20035;-73
2021/05/08 12:05:03;;;;;;;2.30;1.20;;;;;;;;;;5110521;28;20020;-74
2021/05/08 12:07:30;;;;;;;4.00;1.17;;;;;;;;;;5110490;28;20035;-73
2021/05/08 12:10:16;;;;;;;1.83;0.93;;;;;;;;;;5110105;28;20099;-74
2021/05/08 12:12:58;;;;;;;2.67;1.05;;;;;;;;;;5111428;27;20381;-73
2021/05/08 12:16:31;;;;;;;7.25;1.45;;;;;;;;;;5110101;27;20377;-74
2021/05/08 12:18:58;;;;;;;1.85;0.93;;;;;;;;;;5109376;28;20027;-74
2021/05/08 12:21:24;;;;;;;1.00;0.70;;;;;;;;;;5110635;28;20512;-74
2021/05/08 12:23:50;;;;;;;2.47;1.00;;;;;;;;;;5110260;28;20534;-75
2021/05/08 12:26:18;;;;;;;2.72;1.40;;;;;;;;;;5110495;28;20067;-75
2021/05/08 12:28:44;;;;;;;10.40;6.70;;;;;;;;;;5110549;28;20019;-75
2021/05/08 12:31:19;;;;;;;7.00;3.03;;;;;;;;;;5110129;28;20027;-75
2021/05/08 12:33:46;;;;;;;2.30;1.33;;;;;;;;;;5109290;28;20028;-75
2021/05/08 12:36:16;;;;;;;1.98;1.05;;;;;;;;;;5108772;28;20119;-75
2021/05/08 12:38:42;;;;;;;2.35;1.40;;;;;;;;;;5110042;28;20023;-75
2021/05/08 12:41:32;;;;;;;2.05;1.20;;;;;;;;;;5109224;28;20111;-75
2021/05/08 12:44:07;;;;;;;2.97;1.10;;;;;;;;;;5108883;28;20502;-77
2021/05/08 12:46:53;;;;;;;3.20;1.73;;;;;;;;;;5109609;28;20034;-74
2021/05/08 12:49:20;;;;;;;6.57;2.63;;;;;;;;;;5109901;28;20020;-74
2021/05/08 12:51:47;;;;;;;4.82;1.65;;;;;;;;;;5108151;28;20020;-75
2021/05/08 12:54:17;;;;;;;3.97;1.63;;;;;;;;;;5109801;28;20102;-76
2021/05/08 12:56:43;;;;;;;2.33;1.48;;;;;;;;;;5108552;28;20028;-75
2021/05/08 12:59:09;;;;;;;4.68;1.60;;;;;;;;;;5109585;28;20061;-76
2021/05/08 13:01:37;;;;;;;7.03;2.03;;;;;;;;;;5108643;28;20113;-76
2021/05/08 13:04:04;;;;;;;5.72;1.02;;;;;;;;;;5109590;28;20048;-76
2021/05/08 13:06:30;;;;;;;2.28;1.20;;;;;;;;;;5109232;28;20094;-75
2021/05/08 13:08:56;;;;;;;1.70;1.10;;;;;;;;;;5109587;28;20028;-76
2021/05/08 13:11:35;;;;;;;2.22;1.10;;;;;;;;;;5108248;28;20023;-75
2021/05/08 13:14:16;;;;;;;2.28;1.00;;;;;;;;;;5109019;28;20031;-75
2021/05/08 13:16:43;;;;;;;10.13;1.30;;;;;;;;;;5109458;28;20078;-75
2021/05/08 13:19:09;;;;;;;1.02;0.82;;;;;;;;;;5108228;28;20059;-75
2021/05/08 13:21:36;;;;;;;2.30;1.45;;;;;;;;;;5107793;28;20027;-75
2021/05/08 13:24:03;;;;;;;2.38;1.17;;;;;;;;;;5107964;28;20019;-75
2021/05/08 13:26:29;;;;;;;2.30;1.17;;;;;;;;;;5103169;28;20028;-76
2021/05/08 13:28:55;;;;;;;2.30;1.05;;;;;;;;;;5093763;28;20024;-76
2021/05/08 13:31:21;;;;;;;2.17;1.30;;;;;;;;;;5095531;28;20044;-77
2021/05/08 13:33:49;;;;;;;2.72;1.15;;;;;;;;;;5093834;28;20028;-75
2021/05/08 13:36:19;;;;;;;6.28;1.45;;;;;;;;;;5095372;28;20027;-76
2021/05/08 13:38:46;;;;;;;3.05;1.10;;;;;;;;;;5095686;28;20016;-75
2021/05/08 13:41:13;;;;;;;2.80;1.13;;;;;;;;;;5095383;28;20024;-76
2021/05/08 13:43:39;;;;;;;3.60;1.42;;;;;;;;;;5095415;28;20051;-76
2021/05/08 13:46:05;;;;;;;2.55;1.52;;;;;;;;;;5095423;28;20047;-76
2021/05/08 13:48:32;;;;;;;2.10;1.13;;;;;;;;;;5094879;28;20028;-75
2021/05/08 13:50:58;;;;;;;3.15;1.00;;;;;;;;;;5095209;28;20023;-76
2021/05/08 13:53:24;;;;;;;3.90;1.17;;;;;;;;;;5093987;28;20020;-75
2021/05/08 13:55:50;;;;;;;6.63;1.33;;;;;;;;;;5094678;28;20374;-76
2021/05/08 13:58:17;;;;;;;2.17;1.38;;;;;;;;;;5095063;28;20023;-76
2021/05/08 14:00:43;;;;;;;2.47;1.15;;;;;;;;;;5095182;28;20069;-75
2021/05/08 14:03:09;;;;;;;7.72;1.30;;;;;;;;;;5094928;28;20016;-76
2021/05/08 14:05:35;;;;;;;6.20;1.00;;;;;;;;;;5093548;28;20016;-76
2021/05/08 14:08:02;;;;;;;6.68;1.50;;;;;;;;;;5094812;28;20117;-75
2021/05/08 14:10:28;;;;;;;1.77;1.00;;;;;;;;;;5094427;28;20020;-76
2021/05/08 14:12:54;;;;;;;3.03;1.20;;;;;;;;;;5094942;28;20483;-76
2021/05/08 14:15:20;;;;;;;3.00;1.10;;;;;;;;;;5095643;28;20063;-75
2021/05/08 14:17:46;;;;;;;3.88;1.20;;;;;;;;;;5096712;28;20388;-76
2021/05/08 14:20:13;;;;;;;4.22;1.17;;;;;;;;;;5095401;28;20147;-76
2021/05/08 14:22:40;;;;;;;3.00;0.98;;;;;;;;;;5094788;28;20016;-76
2021/05/08 14:25:07;;;;;;;5.43;1.40;;;;;;;;;;5094267;28;20488;-75
2021/05/08 14:27:33;;;;;;;3.72;1.70;;;;;;;;;;5094505;28;20020;-76
2021/05/08 14:30:00;;;;;;;5.10;2.13;;;;;;;;;;5094083;28;20428;-76
2021/05/08 14:32:27;;;;;;;3.25;1.35;;;;;;;;;;5094517;28;20027;-76
2021/05/08 14:34:53;;;;;;;2.20;1.15;;;;;;;;;;5094458;28;20030;-77
2021/05/08 14:37:19;;;;;;;3.50;1.67;;;;;;;;;;5093727;28;20028;-77
2021/05/08 14:39:46;;;;;;;2.50;1.30;;;;;;;;;;5093958;28;20024;-77
2021/05/08 14:42:12;;;;;;;5.03;1.80;;;;;;;;;;5094401;28;20048;-77
2021/05/08 14:44:38;;;;;;;3.08;1.50;;;;;;;;;;5093862;28;20073;-77
2021/05/08 14:47:05;;;;;;;6.68;2.45;;;;;;;;;;5093982;28;20024;-77
2021/05/08 14:49:31;;;;;;;2.33;1.42;;;;;;;;;;5094010;28;20433;-76
2021/05/08 14:51:58;;;;;;;4.97;1.80;;;;;;;;;;5094055;28;20039;-77
2021/05/08 14:54:24;;;;;;;7.53;2.00;;;;;;;;;;5093931;28;20480;-76
2021/05/08 14:56:50;;;;;;;5.28;1.40;;;;;;;;;;5093964;28;20084;-78
2021/05/08 14:59:17;;;;;;;3.17;1.45;;;;;;;;;;5093643;28;20024;-77
2021/05/08 15:01:43;;;;;;;8.43;1.85;;;;;;;;;;5094025;28;20020;-77
2021/05/08 15:04:09;;;;;;;3.65;1.77;;;;;;;;;;5093805;28;20059;-77
2021/05/08 15:06:35;;;;;;;3.25;1.40;;;;;;;;;;5093228;28;20024;-77
2021/05/08 15:09:01;;;;;;;4.05;1.70;;;;;;;;;;5092256;28;20384;-76
2021/05/08 15:11:28;;;;;;;4.07;1.90;;;;;;;;;;5093661;28;20043;-77
2021/05/08 15:13:55;;;;;;;4.13;2.00;;;;;;;;;;5093255;28;20061;-77
2021/05/08 15:16:22;;;;;;;3.60;1.80;;;;;;;;;;5091988;28;20130;-74
2021/05/08 15:18:48;;;;;;;3.03;1.30;;;;;;;;;;5093549;28;20089;-74
2021/05/08 15:21:15;;;;;;;2.53;1.52;;;;;;;;;;5093196;28;20298;-74
2021/05/08 15:23:42;;;;;;;8.38;1.95;;;;;;;;;;5093383;28;20027;-74
2021/05/08 15:26:09;;;;;;;3.03;1.65;;;;;;;;;;5091620;28;20024;-75
2021/05/08 15:28:35;;;;;;;5.85;2.03;;;;;;;;;;5093349;28;20016;-75
2021/05/08 15:31:01;;;;;;;4.40;2.38;;;;;;;;;;5092077;28;20418;-75
2021/05/08 15:33:27;;;;;;;3.40;1.55;;;;;;;;;;5091725;28;20107;-75
2021/05/08 15:35:53;;;;;;;5.70;1.73;;;;;;;;;;5093258;28;20031;-76
2021/05/08 15:38:19;;;;;;;4.13;1.77;;;;;;;;;;5093041;28;20461;-76
2021/05/08 15:40:46;;;;;;;7.43;2.33;;;;;;;;;;5093120;28;20058;-76
2021/05/08 15:43:12;;;;;;;4.45;1.98;;;;;;;;;;5093465;28;20512;-76
2021/05/08 15:45:38;;;;;;;2.80;1.50;;;;;;;;;;5091881;28;20374;-76
2021/05/08 15:48:05;;;;;;;2.85;1.70;;;;;;;;;;5092707;28;20099;-76
2021/05/08 15:50:31;;;;;;;4.20;1.90;;;;;;;;;;5091593;28;20488;-76
2021/05/08 15:52:57;;;;;;;3.55;1.92;;;;;;;;;;5093124;28;20020;-76
2021/05/08 15:55:26;;;;;;;2.83;1.73;;;;;;;;;;5092566;28;20039;-76
2021/05/08 15:57:52;;;;;;;3.05;1.60;;;;;;;;;;5092965;28;20027;-76
2021/05/08 16:00:19;;;;;;;2.65;1.30;;;;;;;;;;5093169;28;20349;-76
2021/05/08 16:02:45;;;;;;;4.10;1.92;;;;;;;;;;5092582;28;20093;-76
2021/05/08 16:05:15;;;;;;;3.17;1.40;;;;;;;;;;5092716;28;20537;-76
2021/05/08 16:07:41;;;;;;;3.70;1.45;;;;;;;;;;5092763;28;20423;-75
2021/05/08 16:10:13;;;;;;;7.15;2.03;;;;;;;;;;5092340;28;20031;-75
2021/05/08 16:12:39;;;;;;;3.95;1.63;;;;;;;;;;5092914;28;20016;-77
2021/05/08 16:15:06;;;;;;;4.95;2.00;;;;;;;;;;5092208;28;20044;-74
2021/05/08 16:17:32;;;;;;;4.32;1.70;;;;;;;;;;5092149;28;20016;-76
2021/05/08 16:19:58;;;;;;;3.05;1.80;;;;;;;;;;5091338;28;20021;-76
2021/05/08 16:22:24;;;;;;;2.70;1.60;;;;;;;;;;5092393;28;20369;-76
2021/05/08 16:26:41;;;;;;;3.15;1.77;;;;;;;;;;5110455;27;20433;-77
2021/05/08 16:29:08;;;;;;;3.67;1.70;;;;;;;;;;5110644;28;20093;-76
2021/05/08 16:31:34;;;;;;;3.25;1.60;;;;;;;;;;5109110;28;20375;-75
2021/05/08 16:34:17;;;;;;;6.43;2.38;;;;;;;;;;5130905;27;20116;-75
2021/05/08 16:36:44;;;;;;;6.85;2.03;;;;;;;;;;5109985;28;20028;-76
2021/05/08 16:39:10;;;;;;;3.15;1.48;;;;;;;;;;5110369;28;20039;-76
2021/05/08 16:41:41;;;;;;;7.20;2.45;;;;;;;;;;5092459;28;20106;-76
2021/05/08 16:44:07;;;;;;;7.72;2.30;;;;;;;;;;5091867;28;20036;-75
2021/05/08 16:46:33;;;;;;;6.30;2.13;;;;;;;;;;5110290;28;20077;-75
2021/05/08 16:49:04;;;;;;;6.55;2.28;;;;;;;;;;5110132;28;20094;-75
2021/05/08 16:51:31;;;;;;;6.68;3.40;;;;;;;;;;5109745;28;20046;-75
2021/05/08 16:55:51;;;;;;;6.15;2.40;;;;;;;;;;5110626;27;20394;-74
2021/05/08 16:58:17;;;;;;;3.00;1.85;;;;;;;;;;5109921;28;20106;-74
2021/05/08 17:00:46;;;;;;;4.50;2.60;;;;;;;;;;5110417;28;20024;-74
2021/05/08 17:03:12;;;;;;;4.00;2.20;;;;;;;;;;5109029;28;20414;-74
2021/05/08 17:05:38;;;;;;;2.97;1.73;;;;;;;;;;5109851;28;20203;-75
2021/05/08 17:08:04;;;;;;;3.72;2.05;;;;;;;;;;5110217;28;20030;-74
2021/05/08 17:11:29;;;;;;;2.92;2.00;;;;;;;;;;5110416;27;20400;-75